Observations for PANTELLERIA IT-AFB, Italy (LICG)

LICG 191750Z 16021KT CAVOK 22/20 Q1017  
LICG 191650Z 16020KT CAVOK 22/21 Q1016  
LICG 191550Z 16018KT CAVOK 23/20 Q1017  
LICG 191450Z 17018KT CAVOK 24/20 Q1017  
LICG 191350Z 17020KT 9999 FEW020 24/21 Q1017
LICG 191250Z 15023KT 9999 FEW020 24/21 Q1017
LICG 191150Z 17020KT 9999 FEW015 24/21 Q1017
LICG 191050Z 17020KT 9999 FEW015 24/21 Q1018
LICG 190950Z 16017KT 9999 SCT015 24/21 Q1018
LICG 190850Z 16015KT 9999 SCT015 23/21 Q1018
LICG 190750Z 15010KT CAVOK 23/21 Q1018  
LICG 190650Z 15008KT CAVOK 22/20 Q1018  
LICG 190550Z 13007KT 9999 FEW030 19/18 Q1018
LICG 190450Z 14007KT CAVOK 17/14 Q1018